sensor_id;sensor_type;location;lat;lon;timestamp;temperature;humidity
2913;DHT22;1466;48.778;9.166;2022-10-14T00:01:37;16.20;99.90
2913;DHT22;1466;48.778;9.166;2022-10-14T00:04:03;16.30;99.90
2913;DHT22;1466;48.778;9.166;2022-10-14T00:06:31;16.30;99.90
2913;DHT22;1466;48.778;9.166;2022-10-14T00:09:03;16.40;99.90
2913;DHT22;1466;48.778;9.166;2022-10-14T00:11:30;16.40;99.90
2913;DHT22;1466;48.778;9.166;2022-10-14T00:14:01;16.40;99.90
2913;DHT22;1466;48.778;9.166;2022-10-14T00:16:29;16.40;99.90
2913;DHT22;1466;48.778;9.166;2022-10-14T00:18:56;16.50;99.90
2913;DHT22;1466;48.778;9.166;2022-10-14T00:21:22;16.50;99.90
2913;DHT22;1466;48.778;9.166;2022-10-14T00:23:48;16.50;99.90
2913;DHT22;1466;48.778;9.166;2022-10-14T00:26:19;16.40;99.90
2913;DHT22;1466;48.778;9.166;2022-10-14T00:28:45;16.40;99.90
2913;DHT22;1466;48.778;9.166;2022-10-14T00:31:10;16.30;99.90
2913;DHT22;1466;48.778;9.166;2022-10-14T00:33:36;16.30;99.90
2913;DHT22;1466;48.778;9.166;2022-10-14T00:36:04;16.30;99.90
2913;DHT22;1466;48.778;9.166;2022-10-14T00:38:30;16.30;99.90
2913;DHT22;1466;48.778;9.166;2022-10-14T00:40:56;16.30;99.90
2913;DHT22;1466;48.778;9.166;2022-10-14T00:43:23;16.30;99.90
2913;DHT22;1466;48.778;9.166;2022-10-14T00:45:49;16.30;99.90
2913;DHT22;1466;48.778;9.166;2022-10-14T00:48:17;16.30;99.90
2913;DHT22;1466;48.778;9.166;2022-10-14T00:50:44;16.30;99.90
2913;DHT22;1466;48.778;9.166;2022-10-14T00:53:12;16.20;99.90
2913;DHT22;1466;48.778;9.166;2022-10-14T00:55:39;16.30;99.90
2913;DHT22;1466;48.778;9.166;2022-10-14T00:58:06;16.40;99.90
2913;DHT22;1466;48.778;9.166;2022-10-14T01:00:32;16.30;99.90
2913;DHT22;1466;48.778;9.166;2022-10-14T01:02:58;16.20;99.90
2913;DHT22;1466;48.778;9.166;2022-10-14T01:05:30;16.20;99.90
2913;DHT22;1466;48.778;9.166;2022-10-14T01:08:07;16.10;99.90
2913;DHT22;1466;48.778;9.166;2022-10-14T01:21:34;16.20;99.90
2913;DHT22;1466;48.778;9.166;2022-10-14T01:26:55;16.20;99.90
2913;DHT22;1466;48.778;9.166;2022-10-14T01:35:30;16.20;99.90
2913;DHT22;1466;48.778;9.166;2022-10-14T01:38:07;16.20;99.90
2913;DHT22;1466;48.778;9.166;2022-10-14T01:41:03;16.20;99.90
2913;DHT22;1466;48.778;9.166;2022-10-14T01:43:31;16.20;99.90
2913;DHT22;1466;48.778;9.166;2022-10-14T01:45:59;16.20;99.90
2913;DHT22;1466;48.778;9.166;2022-10-14T01:48:31;16.20;99.90
2913;DHT22;1466;48.778;9.166;2022-10-14T01:50:59;16.10;99.90
2913;DHT22;1466;48.778;9.166;2022-10-14T01:53:33;16.10;99.90
2913;DHT22;1466;48.778;9.166;2022-10-14T01:56:00;16.10;99.90
2913;DHT22;1466;48.778;9.166;2022-10-14T01:58:28;16.10;99.90
2913;DHT22;1466;48.778;9.166;2022-10-14T02:00:56;16.10;99.90
2913;DHT22;1466;48.778;9.166;2022-10-14T02:03:22;16.10;99.90
2913;DHT22;1466;48.778;9.166;2022-10-14T02:06:00;16.10;99.90
2913;DHT22;1466;48.778;9.166;2022-10-14T02:11:16;16.10;99.90
2913;DHT22;1466;48.778;9.166;2022-10-14T02:14:17;16.00;99.90
2913;DHT22;1466;48.778;9.166;2022-10-14T02:16:50;16.00;99.90
2913;DHT22;1466;48.778;9.166;2022-10-14T02:19:32;16.00;99.90
2913;DHT22;1466;48.778;9.166;2022-10-14T02:22:01;16.00;99.90
2913;DHT22;1466;48.778;9.166;2022-10-14T02:24:40;16.00;99.90
2913;DHT22;1466;48.778;9.166;2022-10-14T02:27:10;15.90;99.90
2913;DHT22;1466;48.778;9.166;2022-10-14T02:29:39;16.00;99.90
2913;DHT22;1466;48.778;9.166;2022-10-14T02:32:08;15.90;99.90
2913;DHT22;1466;48.778;9.166;2022-10-14T02:34:36;15.90;99.90
2913;DHT22;1466;48.778;9.166;2022-10-14T02:37:02;15.90;99.90
2913;DHT22;1466;48.778;9.166;2022-10-14T02:39:35;15.90;99.90
2913;DHT22;1466;48.778;9.166;2022-10-14T02:42:02;15.90;99.90
2913;DHT22;1466;48.778;9.166;2022-10-14T02:44:28;15.80;99.90
2913;DHT22;1466;48.778;9.166;2022-10-14T02:46:55;15.80;99.90
2913;DHT22;1466;48.778;9.166;2022-10-14T02:49:21;15.90;99.90
2913;DHT22;1466;48.778;9.166;2022-10-14T02:51:46;15.90;99.90
2913;DHT22;1466;48.778;9.166;2022-10-14T02:54:12;15.90;99.90
2913;DHT22;1466;48.778;9.166;2022-10-14T02:56:38;15.90;99.90
2913;DHT22;1466;48.778;9.166;2022-10-14T02:59:04;15.80;99.90
2913;DHT22;1466;48.778;9.166;2022-10-14T03:01:30;15.80;99.90
2913;DHT22;1466;48.778;9.166;2022-10-14T03:03:56;15.90;99.90
2913;DHT22;1466;48.778;9.166;2022-10-14T03:06:22;15.90;99.90
2913;DHT22;1466;48.778;9.166;2022-10-14T03:08:47;15.90;99.90
2913;DHT22;1466;48.778;9.166;2022-10-14T03:11:13;15.90;99.90
2913;DHT22;1466;48.778;9.166;2022-10-14T03:13:38;15.90;99.90
2913;DHT22;1466;48.778;9.166;2022-10-14T03:16:04;16.00;99.90
2913;DHT22;1466;48.778;9.166;2022-10-14T03:18:30;16.00;99.90
2913;DHT22;1466;48.778;9.166;2022-10-14T03:20:55;16.00;99.90
2913;DHT22;1466;48.778;9.166;2022-10-14T03:23:21;16.00;99.90
2913;DHT22;1466;48.778;9.166;2022-10-14T03:25:47;16.00;99.90
2913;DHT22;1466;48.778;9.166;2022-10-14T03:28:13;16.00;99.90
2913;DHT22;1466;48.778;9.166;2022-10-14T03:30:39;16.00;99.90
2913;DHT22;1466;48.778;9.166;2022-10-14T03:33:05;16.00;99.90
2913;DHT22;1466;48.778;9.166;2022-10-14T03:35:30;15.90;99.90
2913;DHT22;1466;48.778;9.166;2022-10-14T03:37:56;15.90;99.90
2913;DHT22;1466;48.778;9.166;2022-10-14T03:40:23;15.80;99.90
2913;DHT22;1466;48.778;9.166;2022-10-14T03:42:49;15.80;99.90
2913;DHT22;1466;48.778;9.166;2022-10-14T03:45:15;15.80;99.90
2913;DHT22;1466;48.778;9.166;2022-10-14T03:47:41;15.80;99.90
2913;DHT22;1466;48.778;9.166;2022-10-14T03:50:06;15.80;99.90
2913;DHT22;1466;48.778;9.166;2022-10-14T03:52:32;15.80;99.90
2913;DHT22;1466;48.778;9.166;2022-10-14T03:54:58;15.80;99.90
2913;DHT22;1466;48.778;9.166;2022-10-14T03:57:23;15.80;99.90
2913;DHT22;1466;48.778;9.166;2022-10-14T03:59:49;15.90;99.90
2913;DHT22;1466;48.778;9.166;2022-10-14T04:02:15;15.80;99.90
2913;DHT22;1466;48.778;9.166;2022-10-14T04:04:40;15.80;99.90
2913;DHT22;1466;48.778;9.166;2022-10-14T04:07:06;15.80;99.90
2913;DHT22;1466;48.778;9.166;2022-10-14T04:09:31;15.80;99.90
2913;DHT22;1466;48.778;9.166;2022-10-14T04:11:57;15.80;99.90
2913;DHT22;1466;48.778;9.166;2022-10-14T04:14:23;15.80;99.90
2913;DHT22;1466;48.778;9.166;2022-10-14T04:16:49;15.90;99.90
2913;DHT22;1466;48.778;9.166;2022-10-14T04:19:15;15.90;99.90
2913;DHT22;1466;48.778;9.166;2022-10-14T04:21:40;15.90;99.90
2913;DHT22;1466;48.778;9.166;2022-10-14T04:24:06;15.90;99.90
2913;DHT22;1466;48.778;9.166;2022-10-14T04:26:32;15.90;99.90
2913;DHT22;1466;48.778;9.166;2022-10-14T04:28:57;15.80;99.90
2913;DHT22;1466;48.778;9.166;2022-10-14T04:31:23;15.80;99.90
2913;DHT22;1466;48.778;9.166;2022-10-14T04:33:49;15.80;99.90
2913;DHT22;1466;48.778;9.166;2022-10-14T04:36:14;15.90;99.90
2913;DHT22;1466;48.778;9.166;2022-10-14T04:38:40;15.90;99.90
2913;DHT22;1466;48.778;9.166;2022-10-14T04:41:05;16.00;99.90
2913;DHT22;1466;48.778;9.166;2022-10-14T04:43:31;16.00;99.90
2913;DHT22;1466;48.778;9.166;2022-10-14T04:45:56;16.00;99.90
2913;DHT22;1466;48.778;9.166;2022-10-14T04:48:22;16.00;99.90
2913;DHT22;1466;48.778;9.166;2022-10-14T04:50:52;15.90;99.90
2913;DHT22;1466;48.778;9.166;2022-10-14T04:53:18;16.00;99.90
2913;DHT22;1466;48.778;9.166;2022-10-14T04:55:44;16.00;99.90
2913;DHT22;1466;48.778;9.166;2022-10-14T04:58:11;16.00;99.90
2913;DHT22;1466;48.778;9.166;2022-10-14T05:00:38;16.00;99.90
2913;DHT22;1466;48.778;9.166;2022-10-14T05:03:03;16.10;99.90
2913;DHT22;1466;48.778;9.166;2022-10-14T05:05:29;16.00;99.90
2913;DHT22;1466;48.778;9.166;2022-10-14T05:07:54;16.00;99.90
2913;DHT22;1466;48.778;9.166;2022-10-14T05:10:20;16.00;99.90
2913;DHT22;1466;48.778;9.166;2022-10-14T05:12:46;16.00;99.90
2913;DHT22;1466;48.778;9.166;2022-10-14T05:15:12;15.90;99.90
2913;DHT22;1466;48.778;9.166;2022-10-14T05:17:38;16.00;99.90
2913;DHT22;1466;48.778;9.166;2022-10-14T05:20:04;16.00;99.90
2913;DHT22;1466;48.778;9.166;2022-10-14T05:22:30;16.00;99.90
2913;DHT22;1466;48.778;9.166;2022-10-14T05:24:56;16.00;99.90
2913;DHT22;1466;48.778;9.166;2022-10-14T05:27:22;16.00;99.90
2913;DHT22;1466;48.778;9.166;2022-10-14T05:29:47;16.00;99.90
2913;DHT22;1466;48.778;9.166;2022-10-14T05:32:14;16.00;99.90
2913;DHT22;1466;48.778;9.166;2022-10-14T05:34:39;15.90;99.90
2913;DHT22;1466;48.778;9.166;2022-10-14T05:37:05;16.00;99.90
2913;DHT22;1466;48.778;9.166;2022-10-14T05:39:31;16.00;99.90
2913;DHT22;1466;48.778;9.166;2022-10-14T05:41:56;15.90;99.90
2913;DHT22;1466;48.778;9.166;2022-10-14T05:44:22;16.00;99.90
2913;DHT22;1466;48.778;9.166;2022-10-14T05:46:47;15.90;99.90
2913;DHT22;1466;48.778;9.166;2022-10-14T05:49:13;15.90;99.90
2913;DHT22;1466;48.778;9.166;2022-10-14T05:51:38;15.90;99.90
2913;DHT22;1466;48.778;9.166;2022-10-14T05:54:04;15.90;99.90
2913;DHT22;1466;48.778;9.166;2022-10-14T05:56:30;16.00;99.90
2913;DHT22;1466;48.778;9.166;2022-10-14T05:58:56;15.90;99.90
2913;DHT22;1466;48.778;9.166;2022-10-14T06:04:25;15.90;99.90
2913;DHT22;1466;48.778;9.166;2022-10-14T06:06:51;15.90;99.90
2913;DHT22;1466;48.778;9.166;2022-10-14T06:09:16;16.00;99.90
2913;DHT22;1466;48.778;9.166;2022-10-14T06:11:42;16.10;99.90
2913;DHT22;1466;48.778;9.166;2022-10-14T06:14:08;16.10;99.90
2913;DHT22;1466;48.778;9.166;2022-10-14T06:16:34;16.10;99.90
2913;DHT22;1466;48.778;9.166;2022-10-14T06:19:00;16.10;99.90
2913;DHT22;1466;48.778;9.166;2022-10-14T06:21:26;16.20;99.90
2913;DHT22;1466;48.778;9.166;2022-10-14T06:23:52;16.20;99.90
2913;DHT22;1466;48.778;9.166;2022-10-14T06:26:17;16.20;99.90
2913;DHT22;1466;48.778;9.166;2022-10-14T06:28:43;16.20;99.90
2913;DHT22;1466;48.778;9.166;2022-10-14T06:31:08;16.20;99.90
2913;DHT22;1466;48.778;9.166;2022-10-14T06:33:34;16.30;99.90
2913;DHT22;1466;48.778;9.166;2022-10-14T06:36:04;16.20;99.90
2913;DHT22;1466;48.778;9.166;2022-10-14T06:38:31;16.20;99.90
2913;DHT22;1466;48.778;9.166;2022-10-14T06:40:56;16.20;99.90
2913;DHT22;1466;48.778;9.166;2022-10-14T06:43:22;16.20;99.90
2913;DHT22;1466;48.778;9.166;2022-10-14T06:45:48;16.20;99.90
2913;DHT22;1466;48.778;9.166;2022-10-14T06:48:14;16.30;99.90
2913;DHT22;1466;48.778;9.166;2022-10-14T06:50:40;16.30;99.90
2913;DHT22;1466;48.778;9.166;2022-10-14T06:53:06;16.40;99.90
2913;DHT22;1466;48.778;9.166;2022-10-14T06:55:32;16.40;99.90
2913;DHT22;1466;48.778;9.166;2022-10-14T06:57:57;16.40;99.90
2913;DHT22;1466;48.778;9.166;2022-10-14T07:00:23;16.50;99.90
2913;DHT22;1466;48.778;9.166;2022-10-14T07:02:49;16.50;99.90
2913;DHT22;1466;48.778;9.166;2022-10-14T07:05:15;16.50;99.90
2913;DHT22;1466;48.778;9.166;2022-10-14T07:07:40;16.50;99.90
2913;DHT22;1466;48.778;9.166;2022-10-14T07:10:06;16.50;99.90
2913;DHT22;1466;48.778;9.166;2022-10-14T07:12:32;16.50;99.90
2913;DHT22;1466;48.778;9.166;2022-10-14T07:14:58;16.60;99.90
2913;DHT22;1466;48.778;9.166;2022-10-14T07:17:23;16.50;99.90
2913;DHT22;1466;48.778;9.166;2022-10-14T07:19:49;16.50;99.90
2913;DHT22;1466;48.778;9.166;2022-10-14T07:22:15;16.50;99.90
2913;DHT22;1466;48.778;9.166;2022-10-14T07:24:42;16.50;99.90
2913;DHT22;1466;48.778;9.166;2022-10-14T07:27:08;16.50;99.90
2913;DHT22;1466;48.778;9.166;2022-10-14T07:29:34;16.50;99.90
2913;DHT22;1466;48.778;9.166;2022-10-14T07:31:59;16.50;99.90
2913;DHT22;1466;48.778;9.166;2022-10-14T07:34:25;16.50;99.90
2913;DHT22;1466;48.778;9.166;2022-10-14T07:36:51;16.60;99.90
2913;DHT22;1466;48.778;9.166;2022-10-14T07:39:17;16.70;99.90
2913;DHT22;1466;48.778;9.166;2022-10-14T07:41:43;16.80;99.90
2913;DHT22;1466;48.778;9.166;2022-10-14T07:44:10;16.90;99.90
2913;DHT22;1466;48.778;9.166;2022-10-14T07:46:40;16.90;99.90
2913;DHT22;1466;48.778;9.166;2022-10-14T07:49:12;17.00;99.90
2913;DHT22;1466;48.778;9.166;2022-10-14T07:51:38;17.00;99.90
2913;DHT22;1466;48.778;9.166;2022-10-14T07:54:06;17.00;99.90
2913;DHT22;1466;48.778;9.166;2022-10-14T07:56:36;17.00;99.90
2913;DHT22;1466;48.778;9.166;2022-10-14T07:59:02;17.00;99.90
2913;DHT22;1466;48.778;9.166;2022-10-14T08:01:28;17.10;99.90
2913;DHT22;1466;48.778;9.166;2022-10-14T08:03:54;17.10;99.90
2913;DHT22;1466;48.778;9.166;2022-10-14T08:06:20;17.10;99.90
2913;DHT22;1466;48.778;9.166;2022-10-14T08:08:46;17.10;99.90
2913;DHT22;1466;48.778;9.166;2022-10-14T08:11:17;17.20;99.90
2913;DHT22;1466;48.778;9.166;2022-10-14T08:13:44;17.20;99.90
2913;DHT22;1466;48.778;9.166;2022-10-14T08:16:24;17.40;99.90
2913;DHT22;1466;48.778;9.166;2022-10-14T08:18:50;17.40;99.90
2913;DHT22;1466;48.778;9.166;2022-10-14T08:21:18;17.50;99.90
2913;DHT22;1466;48.778;9.166;2022-10-14T08:23:44;17.50;99.90
2913;DHT22;1466;48.778;9.166;2022-10-14T08:28:47;17.30;99.90
2913;DHT22;1466;48.778;9.166;2022-10-14T08:31:13;17.30;99.90
2913;DHT22;1466;48.778;9.166;2022-10-14T08:33:38;17.40;99.90
2913;DHT22;1466;48.778;9.166;2022-10-14T08:36:04;17.50;99.90
2913;DHT22;1466;48.778;9.166;2022-10-14T08:38:30;17.60;99.90
2913;DHT22;1466;48.778;9.166;2022-10-14T08:43:40;17.60;99.90
2913;DHT22;1466;48.778;9.166;2022-10-14T08:46:20;17.70;99.90
2913;DHT22;1466;48.778;9.166;2022-10-14T08:48:50;17.70;99.90
2913;DHT22;1466;48.778;9.166;2022-10-14T08:51:20;17.80;99.90
2913;DHT22;1466;48.778;9.166;2022-10-14T08:53:54;17.90;99.90
2913;DHT22;1466;48.778;9.166;2022-10-14T08:56:23;17.90;99.90
2913;DHT22;1466;48.778;9.166;2022-10-14T08:58:50;18.00;99.90
2913;DHT22;1466;48.778;9.166;2022-10-14T09:01:27;18.00;99.90
2913;DHT22;1466;48.778;9.166;2022-10-14T09:03:58;18.10;99.90
2913;DHT22;1466;48.778;9.166;2022-10-14T09:06:28;18.20;99.90
2913;DHT22;1466;48.778;9.166;2022-10-14T09:11:55;18.10;99.90
2913;DHT22;1466;48.778;9.166;2022-10-14T09:14:25;18.00;99.90
2913;DHT22;1466;48.778;9.166;2022-10-14T09:16:56;18.10;99.90
2913;DHT22;1466;48.778;9.166;2022-10-14T09:19:30;18.10;99.90
2913;DHT22;1466;48.778;9.166;2022-10-14T09:21:57;18.20;99.90
2913;DHT22;1466;48.778;9.166;2022-10-14T09:27:16;18.20;99.90
2913;DHT22;1466;48.778;9.166;2022-10-14T09:29:44;18.20;99.90
2913;DHT22;1466;48.778;9.166;2022-10-14T09:32:56;18.20;99.90
2913;DHT22;1466;48.778;9.166;2022-10-14T09:35:03;18.20;99.90
2913;DHT22;1466;48.778;9.166;2022-10-14T09:37:37;18.30;99.90
2913;DHT22;1466;48.778;9.166;2022-10-14T09:40:17;18.30;99.90
2913;DHT22;1466;48.778;9.166;2022-10-14T09:42:56;18.40;99.90
2913;DHT22;1466;48.778;9.166;2022-10-14T09:45:23;18.50;99.90
2913;DHT22;1466;48.778;9.166;2022-10-14T09:47:58;18.60;99.90
2913;DHT22;1466;48.778;9.166;2022-10-14T09:50:38;18.70;99.90
2913;DHT22;1466;48.778;9.166;2022-10-14T09:53:16;18.70;99.90
2913;DHT22;1466;48.778;9.166;2022-10-14T09:56:03;18.70;99.90
2913;DHT22;1466;48.778;9.166;2022-10-14T09:58:51;18.80;99.90
2913;DHT22;1466;48.778;9.166;2022-10-14T10:01:20;18.90;99.90
2913;DHT22;1466;48.778;9.166;2022-10-14T10:03:48;19.00;99.90
2913;DHT22;1466;48.778;9.166;2022-10-14T10:06:17;19.10;99.90
2913;DHT22;1466;48.778;9.166;2022-10-14T10:11:33;19.40;99.90
2913;DHT22;1466;48.778;9.166;2022-10-14T10:14:24;19.50;99.90
2913;DHT22;1466;48.778;9.166;2022-10-14T10:17:14;19.50;99.90
2913;DHT22;1466;48.778;9.166;2022-10-14T10:19:40;19.60;99.90
2913;DHT22;1466;48.778;9.166;2022-10-14T10:24:45;19.60;99.90
2913;DHT22;1466;48.778;9.166;2022-10-14T10:27:23;19.60;99.90
2913;DHT22;1466;48.778;9.166;2022-10-14T10:29:50;19.60;99.90
2913;DHT22;1466;48.778;9.166;2022-10-14T10:37:34;19.50;99.90
2913;DHT22;1466;48.778;9.166;2022-10-14T10:40:07;19.60;99.90
2913;DHT22;1466;48.778;9.166;2022-10-14T10:45:41;19.70;99.90
2913;DHT22;1466;48.778;9.166;2022-10-14T10:49:04;19.80;99.90
2913;DHT22;1466;48.778;9.166;2022-10-14T11:16:52;19.50;99.90
2913;DHT22;1466;48.778;9.166;2022-10-14T11:19:12;19.40;99.90
2913;DHT22;1466;48.778;9.166;2022-10-14T11:27:47;18.80;99.90
2913;DHT22;1466;48.778;9.166;2022-10-14T11:35:33;18.70;99.90
2913;DHT22;1466;48.778;9.166;2022-10-14T11:40:56;18.80;99.90
2913;DHT22;1466;48.778;9.166;2022-10-14T11:43:52;18.90;99.90
2913;DHT22;1466;48.778;9.166;2022-10-14T11:46:27;19.00;99.90
2913;DHT22;1466;48.778;9.166;2022-10-14T11:48:57;19.10;99.90
2913;DHT22;1466;48.778;9.166;2022-10-14T11:51:39;19.20;99.90
2913;DHT22;1466;48.778;9.166;2022-10-14T11:56:56;19.40;99.90
2913;DHT22;1466;48.778;9.166;2022-10-14T12:02:24;19.60;99.90
2913;DHT22;1466;48.778;9.166;2022-10-14T12:05:09;19.70;99.90
2913;DHT22;1466;48.778;9.166;2022-10-14T12:07:46;19.80;99.90
2913;DHT22;1466;48.778;9.166;2022-10-14T12:10:30;19.90;99.90
2913;DHT22;1466;48.778;9.166;2022-10-14T12:12:58;19.90;99.90
2913;DHT22;1466;48.778;9.166;2022-10-14T12:15:25;20.00;99.90
2913;DHT22;1466;48.778;9.166;2022-10-14T12:17:59;20.00;99.90
2913;DHT22;1466;48.778;9.166;2022-10-14T12:21:08;20.00;99.90
2913;DHT22;1466;48.778;9.166;2022-10-14T12:23:38;19.90;99.90
2913;DHT22;1466;48.778;9.166;2022-10-14T12:28:39;20.00;99.90
2913;DHT22;1466;48.778;9.166;2022-10-14T12:36:47;20.20;99.90
2913;DHT22;1466;48.778;9.166;2022-10-14T12:42:32;20.40;99.90
2913;DHT22;1466;48.778;9.166;2022-10-14T12:44:58;20.30;99.90
2913;DHT22;1466;48.778;9.166;2022-10-14T12:49:58;20.30;99.90
2913;DHT22;1466;48.778;9.166;2022-10-14T12:52:29;20.30;99.90
2913;DHT22;1466;48.778;9.166;2022-10-14T12:54:57;20.30;99.90
2913;DHT22;1466;48.778;9.166;2022-10-14T12:57:32;20.30;99.90
2913;DHT22;1466;48.778;9.166;2022-10-14T13:00:45;20.30;99.90
2913;DHT22;1466;48.778;9.166;2022-10-14T13:02:46;20.30;99.90
2913;DHT22;1466;48.778;9.166;2022-10-14T13:24:22;20.30;99.90
2913;DHT22;1466;48.778;9.166;2022-10-14T13:27:01;20.30;99.90
2913;DHT22;1466;48.778;9.166;2022-10-14T13:32:38;20.30;99.90
2913;DHT22;1466;48.778;9.166;2022-10-14T13:35:56;20.20;99.90
2913;DHT22;1466;48.778;9.166;2022-10-14T13:38:24;20.10;99.90
2913;DHT22;1466;48.778;9.166;2022-10-14T13:40:52;20.10;99.90
2913;DHT22;1466;48.778;9.166;2022-10-14T13:43:19;20.10;99.90
2913;DHT22;1466;48.778;9.166;2022-10-14T13:45:54;20.20;99.90
2913;DHT22;1466;48.778;9.166;2022-10-14T13:48:36;20.20;99.90
2913;DHT22;1466;48.778;9.166;2022-10-14T13:53:57;20.20;99.90
2913;DHT22;1466;48.778;9.166;2022-10-14T13:56:31;20.20;99.90
2913;DHT22;1466;48.778;9.166;2022-10-14T13:58:57;20.10;99.90
2913;DHT22;1466;48.778;9.166;2022-10-14T14:01:33;20.10;99.90
2913;DHT22;1466;48.778;9.166;2022-10-14T14:04:00;20.00;99.90
2913;DHT22;1466;48.778;9.166;2022-10-14T14:06:27;19.90;99.90
2913;DHT22;1466;48.778;9.166;2022-10-14T14:11:26;19.90;99.90
2913;DHT22;1466;48.778;9.166;2022-10-14T14:13:58;19.80;99.90
2913;DHT22;1466;48.778;9.166;2022-10-14T14:16:32;19.70;99.90
2913;DHT22;1466;48.778;9.166;2022-10-14T14:18:59;19.60;99.90
2913;DHT22;1466;48.778;9.166;2022-10-14T14:21:25;19.50;99.90
2913;DHT22;1466;48.778;9.166;2022-10-14T14:23:59;19.20;99.90
2913;DHT22;1466;48.778;9.166;2022-10-14T14:26:36;19.00;99.90
2913;DHT22;1466;48.778;9.166;2022-10-14T14:29:13;18.90;99.90
2913;DHT22;1466;48.778;9.166;2022-10-14T14:31:39;18.70;99.90
2913;DHT22;1466;48.778;9.166;2022-10-14T14:34:05;18.70;99.90
2913;DHT22;1466;48.778;9.166;2022-10-14T14:36:30;18.70;99.90
2913;DHT22;1466;48.778;9.166;2022-10-14T14:39:00;18.70;99.90
2913;DHT22;1466;48.778;9.166;2022-10-14T14:41:30;18.70;99.90
2913;DHT22;1466;48.778;9.166;2022-10-14T14:44:03;18.60;99.90
2913;DHT22;1466;48.778;9.166;2022-10-14T14:46:38;18.60;99.90
2913;DHT22;1466;48.778;9.166;2022-10-14T14:49:12;18.50;99.90
2913;DHT22;1466;48.778;9.166;2022-10-14T14:51:39;18.50;99.90
2913;DHT22;1466;48.778;9.166;2022-10-14T14:54:06;18.50;99.90
2913;DHT22;1466;48.778;9.166;2022-10-14T14:56:41;18.50;99.90
2913;DHT22;1466;48.778;9.166;2022-10-14T14:59:29;18.50;99.90
2913;DHT22;1466;48.778;9.166;2022-10-14T15:01:57;18.50;99.90
2913;DHT22;1466;48.778;9.166;2022-10-14T15:04:25;18.60;99.90
2913;DHT22;1466;48.778;9.166;2022-10-14T15:12:01;18.70;99.90
2913;DHT22;1466;48.778;9.166;2022-10-14T15:14:50;18.70;99.90
2913;DHT22;1466;48.778;9.166;2022-10-14T15:17:37;18.70;99.90
2913;DHT22;1466;48.778;9.166;2022-10-14T15:32:46;18.60;99.90
2913;DHT22;1466;48.778;9.166;2022-10-14T15:35:17;18.60;99.90
2913;DHT22;1466;48.778;9.166;2022-10-14T15:37:43;18.60;99.90
2913;DHT22;1466;48.778;9.166;2022-10-14T15:40:18;18.60;99.90
2913;DHT22;1466;48.778;9.166;2022-10-14T15:42:45;18.60;99.90
2913;DHT22;1466;48.778;9.166;2022-10-14T15:45:11;18.60;99.90
2913;DHT22;1466;48.778;9.166;2022-10-14T15:47:37;18.60;99.90
2913;DHT22;1466;48.778;9.166;2022-10-14T15:50:13;18.50;99.90
2913;DHT22;1466;48.778;9.166;2022-10-14T15:52:39;18.50;99.90
2913;DHT22;1466;48.778;9.166;2022-10-14T15:55:25;18.40;99.90
2913;DHT22;1466;48.778;9.166;2022-10-14T15:57:52;18.40;99.90
2913;DHT22;1466;48.778;9.166;2022-10-14T16:00:22;18.40;99.90
2913;DHT22;1466;48.778;9.166;2022-10-14T16:02:53;18.30;99.90
2913;DHT22;1466;48.778;9.166;2022-10-14T16:05:20;18.30;99.90
2913;DHT22;1466;48.778;9.166;2022-10-14T16:07:46;18.30;99.90
2913;DHT22;1466;48.778;9.166;2022-10-14T16:10:16;18.30;99.90
2913;DHT22;1466;48.778;9.166;2022-10-14T16:12:42;18.20;99.90
2913;DHT22;1466;48.778;9.166;2022-10-14T16:18:03;18.20;99.90
2913;DHT22;1466;48.778;9.166;2022-10-14T16:20:29;18.20;99.90
2913;DHT22;1466;48.778;9.166;2022-10-14T16:22:55;18.20;99.90
2913;DHT22;1466;48.778;9.166;2022-10-14T16:27:58;18.20;99.90
2913;DHT22;1466;48.778;9.166;2022-10-14T16:30:23;18.10;99.90
2913;DHT22;1466;48.778;9.166;2022-10-14T16:32:49;18.10;99.90
2913;DHT22;1466;48.778;9.166;2022-10-14T16:35:15;18.10;99.90
2913;DHT22;1466;48.778;9.166;2022-10-14T16:37:41;18.00;99.90
2913;DHT22;1466;48.778;9.166;2022-10-14T16:40:08;17.90;99.90
2913;DHT22;1466;48.778;9.166;2022-10-14T16:42:34;17.90;99.90
2913;DHT22;1466;48.778;9.166;2022-10-14T16:45:00;17.90;99.90
2913;DHT22;1466;48.778;9.166;2022-10-14T16:47:25;17.90;99.90
2913;DHT22;1466;48.778;9.166;2022-10-14T16:49:52;17.90;99.90
2913;DHT22;1466;48.778;9.166;2022-10-14T16:52:19;17.90;99.90
2913;DHT22;1466;48.778;9.166;2022-10-14T16:54:45;17.90;99.90
2913;DHT22;1466;48.778;9.166;2022-10-14T16:57:11;17.90;99.90
2913;DHT22;1466;48.778;9.166;2022-10-14T16:59:37;17.90;99.90
2913;DHT22;1466;48.778;9.166;2022-10-14T17:02:04;17.90;99.90
2913;DHT22;1466;48.778;9.166;2022-10-14T17:04:29;17.90;99.90
2913;DHT22;1466;48.778;9.166;2022-10-14T17:06:55;17.90;99.90
2913;DHT22;1466;48.778;9.166;2022-10-14T17:09:21;17.90;99.90
2913;DHT22;1466;48.778;9.166;2022-10-14T17:11:46;17.90;99.90
2913;DHT22;1466;48.778;9.166;2022-10-14T17:14:16;17.90;99.90
2913;DHT22;1466;48.778;9.166;2022-10-14T17:16:42;17.90;99.90
2913;DHT22;1466;48.778;9.166;2022-10-14T17:19:09;17.90;99.90
2913;DHT22;1466;48.778;9.166;2022-10-14T17:21:35;17.80;99.90
2913;DHT22;1466;48.778;9.166;2022-10-14T17:24:01;17.80;99.90
2913;DHT22;1466;48.778;9.166;2022-10-14T17:26:28;17.80;99.90
2913;DHT22;1466;48.778;9.166;2022-10-14T17:28:55;17.80;99.90
2913;DHT22;1466;48.778;9.166;2022-10-14T17:31:21;17.90;99.90
2913;DHT22;1466;48.778;9.166;2022-10-14T17:33:48;17.90;99.90
2913;DHT22;1466;48.778;9.166;2022-10-14T17:36:17;17.90;99.90
2913;DHT22;1466;48.778;9.166;2022-10-14T17:38:43;17.90;99.90
2913;DHT22;1466;48.778;9.166;2022-10-14T17:41:11;17.90;99.90
2913;DHT22;1466;48.778;9.166;2022-10-14T17:43:37;17.80;99.90
2913;DHT22;1466;48.778;9.166;2022-10-14T17:46:08;17.90;99.90
2913;DHT22;1466;48.778;9.166;2022-10-14T17:48:37;17.80;99.90
2913;DHT22;1466;48.778;9.166;2022-10-14T17:51:05;17.90;99.90
2913;DHT22;1466;48.778;9.166;2022-10-14T17:53:31;17.90;99.90
2913;DHT22;1466;48.778;9.166;2022-10-14T17:56:05;17.90;99.90
2913;DHT22;1466;48.778;9.166;2022-10-14T17:58:31;17.80;99.90
2913;DHT22;1466;48.778;9.166;2022-10-14T18:01:07;17.80;99.90
2913;DHT22;1466;48.778;9.166;2022-10-14T18:03:35;17.90;99.90
2913;DHT22;1466;48.778;9.166;2022-10-14T18:08:37;17.90;99.90
2913;DHT22;1466;48.778;9.166;2022-10-14T18:11:04;17.90;99.90
2913;DHT22;1466;48.778;9.166;2022-10-14T18:13:29;17.90;99.90
2913;DHT22;1466;48.778;9.166;2022-10-14T18:16:07;17.80;99.90
2913;DHT22;1466;48.778;9.166;2022-10-14T18:18:33;17.80;99.90
2913;DHT22;1466;48.778;9.166;2022-10-14T18:21:00;17.80;99.90
2913;DHT22;1466;48.778;9.166;2022-10-14T18:23:28;17.80;99.90
2913;DHT22;1466;48.778;9.166;2022-10-14T18:26:15;17.70;99.90
2913;DHT22;1466;48.778;9.166;2022-10-14T18:28:46;17.70;99.90
2913;DHT22;1466;48.778;9.166;2022-10-14T18:31:17;17.70;99.90
2913;DHT22;1466;48.778;9.166;2022-10-14T18:33:43;17.80;99.90
2913;DHT22;1466;48.778;9.166;2022-10-14T18:36:11;17.60;99.90
2913;DHT22;1466;48.778;9.166;2022-10-14T18:38:37;17.60;99.90
2913;DHT22;1466;48.778;9.166;2022-10-14T18:41:10;17.70;99.90
2913;DHT22;1466;48.778;9.166;2022-10-14T18:43:36;17.60;99.90
2913;DHT22;1466;48.778;9.166;2022-10-14T18:48:34;17.60;99.90
2913;DHT22;1466;48.778;9.166;2022-10-14T18:51:00;17.50;99.90
2913;DHT22;1466;48.778;9.166;2022-10-14T18:53:27;17.40;99.90
2913;DHT22;1466;48.778;9.166;2022-10-14T18:55:56;17.30;99.90
2913;DHT22;1466;48.778;9.166;2022-10-14T18:58:21;17.20;99.90
2913;DHT22;1466;48.778;9.166;2022-10-14T19:00:47;17.10;99.90